Time,TemperatureF,DewpointF,PressureIn,WindDirection,WindDirectionDegrees,WindSpeedMPH,WindSpeedGustMPH,Humidity,HourlyPrecipIn,Conditions,Clouds,dailyrainin,SoftwareType,DateUTC
2013-01-14 00:00:00,9.7,5.3,30.38,NNW,338,0.0,0.0,82,0.00,,,0.00,VWS V14.00,2013-01-14 06:00:00,
2013-01-14 00:30:00,9.5,5.4,30.38,NNW,338,0.0,0.0,83,0.00,,,0.00,VWS V14.00,2013-01-14 06:30:00,
2013-01-14 01:00:00,9.2,5.4,30.37,NNW,338,0.0,0.0,84,0.00,,,0.00,VWS V14.00,2013-01-14 07:00:00,
2013-01-14 01:30:00,8.9,5.3,30.38,NNW,338,0.0,0.0,85,0.00,,,0.00,VWS V14.00,2013-01-14 07:30:00,
2013-01-14 02:00:00,8.6,5.0,30.40,NNW,338,0.0,0.0,85,0.00,,,0.00,VWS V14.00,2013-01-14 08:00:00,
2013-01-14 02:30:00,8.2,4.9,30.41,NNW,338,0.0,0.0,86,0.00,,,0.00,VWS V14.00,2013-01-14 08:30:00,
2013-01-14 03:00:00,7.9,4.6,30.42,NNW,338,0.0,0.0,86,0.00,,,0.00,VWS V14.00,2013-01-14 09:00:00,
2013-01-14 03:30:00,8.0,4.9,30.42,NNW,338,0.0,0.0,87,0.00,,,0.00,VWS V14.00,2013-01-14 09:30:00,
2013-01-14 04:00:00,8.0,4.9,30.42,NNW,338,0.0,0.0,87,0.00,,,0.00,VWS V14.00,2013-01-14 10:00:00,
2013-01-14 04:30:00,7.8,4.7,30.42,NNW,338,0.0,0.0,87,0.00,,,0.00,VWS V14.00,2013-01-14 10:30:00,
2013-01-14 05:00:00,7.6,4.6,30.41,NNW,338,0.0,0.0,87,0.00,,,0.00,VWS V14.00,2013-01-14 11:00:00,
2013-01-14 05:30:00,7.5,4.4,30.42,NNW,338,0.0,0.0,87,0.00,,,0.00,VWS V14.00,2013-01-14 11:30:00,
2013-01-14 06:00:00,7.1,4.1,30.42,NNW,338,0.0,0.0,87,0.00,,,0.00,VWS V14.00,2013-01-14 12:00:00,
2013-01-14 06:30:00,7.0,4.2,30.44,NNW,338,0.0,0.0,88,0.00,,,0.00,VWS V14.00,2013-01-14 12:30:00,
2013-01-14 07:00:00,7.0,4.2,30.45,NNW,338,0.0,0.0,88,0.00,,,0.00,VWS V14.00,2013-01-14 13:00:00,
2013-01-14 07:30:00,7.1,4.3,30.47,NNW,338,0.0,0.0,88,0.00,,,0.00,VWS V14.00,2013-01-14 13:30:00,
2013-01-14 08:00:00,7.1,4.3,30.48,NNW,338,0.0,0.0,88,0.00,,,0.00,VWS V14.00,2013-01-14 14:00:00,
2013-01-14 08:30:00,7.5,4.7,30.49,NNW,338,0.0,0.0,88,0.00,,,0.00,VWS V14.00,2013-01-14 14:30:00,
2013-01-14 09:00:00,9.5,6.9,30.50,NNW,338,0.0,0.0,89,0.00,,,0.00,VWS V14.00,2013-01-14 15:00:00,
2013-01-14 09:30:00,13.5,10.1,30.50,NNW,338,0.0,1.0,86,0.00,,,0.00,VWS V14.00,2013-01-14 15:30:00,
2013-01-14 10:00:00,16.9,12.4,30.50,NNW,338,0.0,0.0,82,0.00,,,0.00,VWS V14.00,2013-01-14 16:00:00,
2013-01-14 10:30:00,21.7,13.8,30.49,NNW,338,0.0,6.0,71,0.00,,,0.00,VWS V14.00,2013-01-14 16:30:00,
2013-01-14 11:00:00,25.3,14.1,30.49,NNW,338,1.0,6.0,62,0.00,,,0.00,VWS V14.00,2013-01-14 17:00:00,
2013-01-14 11:30:00,27.0,13.8,30.47,SW,225,2.0,8.0,57,0.00,,,0.00,VWS V14.00,2013-01-14 17:30:00,
2013-01-14 12:00:00,27.6,13.6,30.45,West,270,3.0,12.0,55,0.00,,,0.00,VWS V14.00,2013-01-14 18:00:00,
2013-01-14 12:30:00,28.8,13.8,30.43,West,270,3.0,13.0,53,0.00,,,0.00,VWS V14.00,2013-01-14 18:30:00,
2013-01-14 13:00:00,29.5,14.1,30.42,West,270,2.0,8.0,52,0.00,,,0.00,VWS V14.00,2013-01-14 19:00:00,
2013-01-14 13:30:00,29.5,14.5,30.40,SW,225,3.0,11.0,53,0.00,,,0.00,VWS V14.00,2013-01-14 19:30:00,
2013-01-14 14:00:00,30.2,14.3,30.39,SW,225,3.0,11.0,51,0.00,,,0.00,VWS V14.00,2013-01-14 20:00:00,
2013-01-14 14:30:00,30.6,12.8,30.39,SW,225,3.0,8.0,47,0.00,,,0.00,VWS V14.00,2013-01-14 20:30:00,
2013-01-14 15:00:00,30.4,13.1,30.40,SW,225,2.0,11.0,48,0.00,,,0.00,VWS V14.00,2013-01-14 21:00:00,
2013-01-14 15:30:00,30.3,12.5,30.39,SW,225,2.0,7.0,47,0.00,,,0.00,VWS V14.00,2013-01-14 21:30:00,
2013-01-14 16:00:00,28.7,12.4,30.39,SW,225,1.0,8.0,50,0.00,,,0.00,VWS V14.00,2013-01-14 22:00:00,
2013-01-14 16:30:00,28.3,11.1,30.39,SW,225,1.0,6.0,48,0.00,,,0.00,VWS V14.00,2013-01-14 22:30:00,
2013-01-14 17:00:00,27.2,11.5,30.39,SW,225,0.0,5.0,51,0.00,,,0.00,VWS V14.00,2013-01-14 23:00:00,
2013-01-14 17:30:00,26.2,12.2,30.39,SW,225,0.0,5.0,55,0.00,,,0.00,VWS V14.00,2013-01-14 23:30:00,
2013-01-14 18:00:00,24.9,12.2,30.40,SW,225,0.0,0.0,58,0.00,,,0.00,VWS V14.00,2013-01-15 00:00:00,
2013-01-14 18:30:00,23.3,12.6,30.40,SW,225,0.0,0.0,63,0.00,,,0.00,VWS V14.00,2013-01-15 00:30:00,
2013-01-14 19:00:00,21.5,12.3,30.41,SW,225,0.0,0.0,67,0.00,,,0.00,VWS V14.00,2013-01-15 01:00:00,
2013-01-14 19:30:00,20.3,12.7,30.41,SW,225,0.0,0.0,72,0.00,,,0.00,VWS V14.00,2013-01-15 01:30:00,
2013-01-14 20:00:00,19.5,12.6,30.40,SW,225,0.0,0.0,74,0.00,,,0.00,VWS V14.00,2013-01-15 02:00:00,
2013-01-14 20:30:00,19.0,12.4,30.40,SW,225,0.0,0.0,75,0.00,,,0.00,VWS V14.00,2013-01-15 02:30:00,
2013-01-14 21:00:00,18.8,12.8,30.39,SW,225,0.0,0.0,77,0.00,,,0.00,VWS V14.00,2013-01-15 03:00:00,
2013-01-14 21:30:00,19.0,12.7,30.39,SW,225,0.0,0.0,76,0.00,,,0.00,VWS V14.00,2013-01-15 03:30:00,
2013-01-14 22:00:00,18.7,12.7,30.39,SW,225,0.0,0.0,77,0.00,,,0.00,VWS V14.00,2013-01-15 04:00:00,
2013-01-14 22:30:00,18.1,12.4,30.39,SW,225,0.0,0.0,78,0.00,,,0.00,VWS V14.00,2013-01-15 04:30:00,
2013-01-14 23:00:00,17.8,12.7,30.39,SW,225,0.0,0.0,80,0.00,,,0.00,VWS V14.00,2013-01-15 05:00:00,
2013-01-14 23:30:00,17.3,12.2,30.38,SW,225,0.0,0.0,80,0.00,,,0.00,VWS V14.00,2013-01-15 05:30:00,